Thunder radar more information blitzortung!


Radar de pluja more information rain snow radar


Visita la nostra xarxa de llocs de meteo:

Template documentation
and downloads

And another site



No particular awareness of the weather is required.    There are no Weather-warnings

Pagina Historial Weather Underground text

Diari Resum Juliol 19, 2017 Unitats:  Mètric    Imperial   Tant
« Previous Dia
SegĂźent Dia »
Diari Setmana Mensual Anual Personalitzada
  Maxima: Minima: Media:
Temperatura: 31.7 °C 20.6 °C 27.1 °C
Punt de rosada: 19.2 °C 12.6 °C 16.7 °C
Humitat: 82 % 34 % 55 %
Wind Speed: 25.9 km/h 0.0 km/h 9.4 km/h
RĂ fegues de vent: 25.9 km/h - -
Vent:- - East
Pression baro: 1014.8 hPa 1009.0 hPa -
Precipitacions: 0.0 mm    
Historical Graphs
 
 
Dades de taula per Juliol 19, 2017
Temps Temperatura Punt de rosada Pression baro Vent Wind Speed RĂ fegues de vent Humitat Rainfall Rate (Hourly)
00:00 23.7 °C 16.5 °C 1014.8 hPa SW 1.6 km/h 4.8 km/h 64 % 0.0 mm
00:05 23.7 °C 16.7 °C 1014.8 hPa SW 3.2 km/h 6.4 km/h 65 % 0.0 mm
00:15 21.1 °C 16.9 °C 1011.7 hPa SW 3.2 km/h 3.2 km/h 77 % 0.0 mm
00:25 20.9 °C 17.1 °C 1011.7 hPa SW 1.6 km/h 3.2 km/h 79 % 0.0 mm
00:35 20.9 °C 17.1 °C 1011.7 hPa WSW 1.6 km/h 3.2 km/h 79 % 0.0 mm
00:45 20.9 °C 17.3 °C 1011.7 hPa WSW 1.6 km/h 3.2 km/h 80 % 0.0 mm
00:55 20.9 °C 17.5 °C 1011.7 hPa Calm   1.6 km/h 81 % 0.0 mm
01:05 21.0 °C 17.4 °C 1011.7 hPa WSW 3.2 km/h 3.2 km/h 80 % 0.0 mm
01:15 21.0 °C 17.6 °C 1011.7 hPa Calm   3.2 km/h 81 % 0.0 mm
01:25 20.9 °C 17.7 °C 1012.8 hPa Calm     82 % 0.0 mm
01:35 20.9 °C 17.7 °C 1012.8 hPa Calm   1.6 km/h 82 % 0.0 mm
01:45 20.8 °C 17.4 °C 1013.8 hPa Calm   3.2 km/h 81 % 0.0 mm
01:55 20.6 °C 17.0 °C 1013.8 hPa WSW 4.8 km/h 4.8 km/h 80 % 0.0 mm
02:05 20.7 °C 16.7 °C 1013.8 hPa WSW 1.6 km/h 6.4 km/h 78 % 0.0 mm
02:15 20.9 °C 16.9 °C 1013.8 hPa WSW 1.6 km/h 3.2 km/h 78 % 0.0 mm
02:25 21.3 °C 16.9 °C 1014.8 hPa West 1.6 km/h 4.8 km/h 76 % 0.0 mm
02:35 21.8 °C 17.2 °C 1014.8 hPa Calm   1.6 km/h 75 % 0.0 mm
02:45 22.1 °C 17.1 °C 1013.8 hPa Calm   3.2 km/h 73 % 0.0 mm
02:55 22.2 °C 17.1 °C 1013.8 hPa NE 3.2 km/h 4.8 km/h 73 % 0.0 mm
03:05 22.0 °C 16.7 °C 1013.8 hPa NNE 3.2 km/h 6.4 km/h 72 % 0.0 mm
03:15 22.0 °C 16.9 °C 1013.8 hPa North 1.6 km/h 3.2 km/h 73 % 0.0 mm
03:25 21.9 °C 17.1 °C 1013.8 hPa West 1.6 km/h 3.2 km/h 74 % 0.0 mm
03:35 22.3 °C 16.8 °C 1013.8 hPa WNW 1.6 km/h 1.6 km/h 71 % 0.0 mm
03:45 22.8 °C 17.1 °C 1012.8 hPa NNE 1.6 km/h 4.8 km/h 70 % 0.0 mm
03:55 24.0 °C 17.5 °C 1013.8 hPa NE 1.6 km/h 6.4 km/h 67 % 0.0 mm
04:05 24.5 °C 17.5 °C 1013.8 hPa NE 3.2 km/h 6.4 km/h 65 % 0.0 mm
04:15 25.5 °C 17.9 °C 1013.8 hPa NE 3.2 km/h 6.4 km/h 63 % 0.0 mm
04:25 25.9 °C 17.6 °C 1012.8 hPa NE 3.2 km/h 9.7 km/h 60 % 0.0 mm
04:35 26.4 °C 18.0 °C 1012.8 hPa NNE 3.2 km/h 6.4 km/h 60 % 0.0 mm
04:45 26.5 °C 17.3 °C 1013.8 hPa NNE 4.8 km/h 9.7 km/h 57 % 0.0 mm
04:55 27.4 °C 17.6 °C 1013.8 hPa NNE 3.2 km/h 4.8 km/h 55 % 0.0 mm
05:05 27.7 °C 16.9 °C 1013.8 hPa NE 4.8 km/h 6.4 km/h 52 % 0.0 mm
05:15 28.1 °C 17.0 °C 1012.8 hPa NE 3.2 km/h 4.8 km/h 51 % 0.0 mm
05:25 28.4 °C 16.3 °C 1012.8 hPa ENE 4.8 km/h 4.8 km/h 48 % 0.0 mm
05:30 28.6 °C 16.2 °C 1012.8 hPa East 3.2 km/h 4.8 km/h 47 % 0.0 mm
10:31 28.6 °C 16.2 °C 1012.8 hPa NNE 5.6 km/h 5.6 km/h 47 % 0.0 mm
10:37 29.0 °C 16.6 °C 1012.8 hPa SW 3.9 km/h 3.9 km/h 47 % 0.0 mm
10:42 29.0 °C 16.2 °C 1012.8 hPa NNE 5.6 km/h 5.6 km/h 46 % 0.0 mm
10:47 29.6 °C 16.8 °C 1012.8 hPa SW 5.6 km/h 5.6 km/h 46 % 0.0 mm
10:48 29.7 °C 16.8 °C 1012.8 hPa West 2.3 km/h 2.3 km/h 46 % 0.0 mm
10:53 29.5 °C 16.3 °C 1012.8 hPa North 9.3 km/h 9.3 km/h 45 % 0.0 mm
10:58 29.6 °C 16.8 °C 1012.8 hPa ENE 9.3 km/h 9.3 km/h 46 % 0.0 mm
11:03 29.5 °C 16.3 °C 1012.8 hPa NNE 3.7 km/h 3.7 km/h 45 % 0.0 mm
11:08 29.6 °C 16.1 °C 1012.8 hPa SW 5.8 km/h 5.8 km/h 44 % 0.0 mm
11:13 30.0 °C 16.1 °C 1012.8 hPa ENE 5.6 km/h 5.6 km/h 43 % 0.0 mm
11:18 30.2 °C 15.9 °C 1012.8 hPa East 7.4 km/h 7.4 km/h 42 % 0.0 mm
11:23 30.6 °C 15.4 °C 1011.7 hPa ESE 5.6 km/h 5.6 km/h 40 % 0.0 mm
11:28 30.5 °C 15.0 °C 1011.7 hPa East 5.6 km/h 5.6 km/h 39 % 0.0 mm
11:33 30.2 °C 14.3 °C 1011.7 hPa NE 7.4 km/h 7.4 km/h 38 % 0.0 mm
11:38 30.4 °C 14.5 °C 1011.7 hPa South 5.6 km/h 5.6 km/h 38 % 0.0 mm
11:43 30.4 °C 14.5 °C 1011.7 hPa ESE 9.0 km/h 9.0 km/h 38 % 0.0 mm
11:49 30.0 °C 14.1 °C 1011.7 hPa East 7.4 km/h 7.4 km/h 38 % 0.0 mm
11:54 29.9 °C 14.1 °C 1011.7 hPa SE 5.6 km/h 5.6 km/h 38 % 0.0 mm
11:59 29.8 °C 13.6 °C 1011.7 hPa ESE 8.7 km/h 8.7 km/h 37 % 0.0 mm
12:05 29.6 °C 12.9 °C 1011.7 hPa SE 7.4 km/h 7.4 km/h 36 % 0.0 mm
12:10 29.7 °C 13.4 °C 1011.7 hPa ENE 7.4 km/h 7.4 km/h 37 % 0.0 mm
12:15 30.2 °C 13.9 °C 1011.7 hPa ENE 1.6 km/h 4.8 km/h 37 % 0.0 mm
12:20 30.2 °C 13.1 °C 1011.7 hPa SE 5.8 km/h 5.8 km/h 35 % 0.0 mm
12:25 30.2 °C 12.6 °C 1011.7 hPa ENE 7.4 km/h 7.4 km/h 34 % 0.0 mm
12:30 30.4 °C 13.2 °C 1011.7 hPa East 8.0 km/h 14.5 km/h 35 % 0.0 mm
12:35 30.5 °C 12.9 °C 1011.7 hPa East 8.0 km/h 11.3 km/h 34 % 0.0 mm
12:40 30.9 °C 13.7 °C 1011.7 hPa East 8.0 km/h 11.3 km/h 35 % 0.0 mm
12:45 31.0 °C 13.7 °C 1011.7 hPa East 9.7 km/h 12.9 km/h 35 % 0.0 mm
12:50 30.8 °C 13.6 °C 1011.7 hPa East 11.3 km/h 17.7 km/h 35 % 0.0 mm
12:55 31.1 °C 13.8 °C 1010.7 hPa East 11.3 km/h 14.5 km/h 35 % 0.0 mm
13:00 31.6 °C 14.7 °C 1010.7 hPa ESE 3.2 km/h 14.5 km/h 36 % 0.0 mm
13:05 31.5 °C 14.6 °C 1010.7 hPa SE 13.0 km/h 13.0 km/h 36 % 0.0 mm
13:10 31.0 °C 14.2 °C 1011.7 hPa ESE 11.3 km/h 14.5 km/h 36 % 0.0 mm
13:15 30.8 °C 14.4 °C 1011.7 hPa ESE 14.5 km/h 20.9 km/h 37 % 0.0 mm
13:20 30.6 °C 14.3 °C 1011.7 hPa ESE 15.8 km/h 15.8 km/h 37 % 0.0 mm
13:25 30.4 °C 14.5 °C 1011.7 hPa East 13.0 km/h 13.0 km/h 38 % 0.0 mm
13:30 30.6 °C 14.7 °C 1011.7 hPa ESE 9.7 km/h 16.1 km/h 38 % 0.0 mm
13:35 30.5 °C 14.6 °C 1011.7 hPa ESE 9.7 km/h 16.1 km/h 38 % 0.0 mm
13:40 30.6 °C 15.1 °C 1011.7 hPa ESE 9.7 km/h 22.5 km/h 39 % 0.0 mm
13:45 30.7 °C 15.1 °C 1011.7 hPa ESE 9.7 km/h 22.5 km/h 39 % 0.0 mm
13:46 30.8 °C 15.2 °C 1011.7 hPa ENE 14.8 km/h 14.8 km/h 39 % 0.0 mm
13:51 30.7 °C 15.6 °C 1011.7 hPa East 13.0 km/h 13.0 km/h 40 % 0.0 mm
13:56 31.3 °C 15.7 °C 1011.7 hPa East 14.8 km/h 14.8 km/h 39 % 0.0 mm
14:01 31.2 °C 15.6 °C 1011.7 hPa East 9.7 km/h 9.7 km/h 39 % 0.0 mm
14:06 31.5 °C 15.9 °C 1011.7 hPa ENE 8.7 km/h 8.7 km/h 39 % 0.0 mm
14:11 31.4 °C 15.4 °C 1011.7 hPa South 16.7 km/h 16.7 km/h 38 % 0.0 mm
14:16 31.5 °C 15.4 °C 1011.7 hPa ESE 25.1 km/h 25.1 km/h 38 % 0.0 mm
14:21 31.6 °C 15.6 °C 1011.7 hPa South 11.1 km/h 11.1 km/h 38 % 0.0 mm
14:26 31.7 °C 15.6 °C 1011.7 hPa ESE 11.4 km/h 12.6 km/h 38 % 0.0 mm
14:31 31.1 °C 15.5 °C 1011.7 hPa ESE 18.5 km/h 18.5 km/h 39 % 0.0 mm
14:33 31.0 °C 15.4 °C 1011.7 hPa ESE 24.1 km/h 24.1 km/h 39 % 0.0 mm
14:38 30.9 °C 15.7 °C 1011.7 hPa East 20.4 km/h 20.4 km/h 40 % 0.0 mm
14:43 30.9 °C 16.1 °C 1011.7 hPa ESE 13.0 km/h 13.0 km/h 41 % 0.0 mm
14:48 31.0 °C 16.2 °C 1011.7 hPa SSE 14.8 km/h 14.8 km/h 41 % 0.0 mm
14:53 30.4 °C 16.1 °C 1011.7 hPa ESE 18.5 km/h 18.5 km/h 42 % 0.0 mm
14:58 30.7 °C 16.3 °C 1011.7 hPa SE 17.2 km/h 17.2 km/h 42 % 0.0 mm
15:03 30.7 °C 16.7 °C 1011.7 hPa East 16.1 km/h 16.1 km/h 43 % 0.0 mm
15:08 30.7 °C 16.3 °C 1011.7 hPa SE 14.8 km/h 14.8 km/h 42 % 0.0 mm
15:10 30.9 °C 16.5 °C 1011.7 hPa East 14.8 km/h 14.8 km/h 42 % 0.0 mm
15:14 30.7 °C 16.3 °C 1011.7 hPa ESE 17.2 km/h 17.2 km/h 42 % 0.0 mm
15:20 31.2 °C 16.4 °C 1011.7 hPa SSW 9.3 km/h 9.3 km/h 41 % 0.0 mm
15:25 31.6 °C 16.7 °C 1011.7 hPa ESE 11.1 km/h 11.1 km/h 41 % 0.0 mm
15:30 31.3 °C 16.1 °C 1011.7 hPa SE 8.0 km/h 22.5 km/h 40 % 0.0 mm
15:35 31.7 °C 16.1 °C 1011.7 hPa ESE 12.9 km/h 25.7 km/h 39 % 0.0 mm
15:40 31.1 °C 15.5 °C 1011.7 hPa SSE 13.0 km/h 13.0 km/h 39 % 0.0 mm
15:45 31.7 °C 16.1 °C 1011.7 hPa SE 9.7 km/h 14.5 km/h 39 % 0.0 mm
15:50 30.8 °C 15.6 °C 1011.7 hPa SE 14.5 km/h 22.5 km/h 40 % 0.0 mm
15:55 30.9 °C 16.1 °C 1011.7 hPa SE 8.0 km/h 9.7 km/h 41 % 0.0 mm
16:00 30.2 °C 15.1 °C 1011.7 hPa East 16.7 km/h 16.9 km/h 40 % 0.0 mm
16:05 30.3 °C 15.2 °C 1011.7 hPa East 18.0 km/h 18.0 km/h 40 % 0.0 mm
16:10 30.4 °C 15.3 °C 1011.7 hPa NNE 25.9 km/h 25.9 km/h 40 % 0.0 mm
16:15 30.6 °C 15.4 °C 1011.7 hPa ESE 16.7 km/h 16.7 km/h 40 % 0.0 mm
16:20 30.2 °C 15.1 °C 1011.7 hPa South 16.7 km/h 16.7 km/h 40 % 0.0 mm
16:25 30.3 °C 15.2 °C 1011.7 hPa ESE 11.3 km/h 19.3 km/h 40 % 0.0 mm
16:30 30.7 °C 15.6 °C 1011.7 hPa ESE 13.0 km/h 13.0 km/h 40 % 0.0 mm
16:35 30.8 °C 15.7 °C 1011.7 hPa ESE 13.0 km/h 13.0 km/h 40 % 0.0 mm
16:40 30.1 °C 15.0 °C 1011.7 hPa ENE 14.8 km/h 14.8 km/h 40 % 0.0 mm
16:45 30.3 °C 15.2 °C 1011.7 hPa ESE 16.7 km/h 16.7 km/h 40 % 0.0 mm
16:50 30.6 °C 15.4 °C 1011.7 hPa East 19.5 km/h 19.5 km/h 40 % 0.0 mm
16:55 30.1 °C 15.0 °C 1011.7 hPa ESE 14.8 km/h 14.8 km/h 40 % 0.0 mm
17:00 30.4 °C 15.7 °C 1011.7 hPa SE 13.0 km/h 13.0 km/h 41 % 0.0 mm
17:05 30.5 °C 15.8 °C 1011.7 hPa ENE 16.7 km/h 16.7 km/h 41 % 0.0 mm
17:10 30.3 °C 15.2 °C 1010.7 hPa ESE 13.0 km/h 13.0 km/h 40 % 0.0 mm
17:11 30.3 °C 15.2 °C 1010.7 hPa ESE 15.8 km/h 15.8 km/h 40 % 0.0 mm
17:16 30.1 °C 15.8 °C 1010.7 hPa ESE 16.7 km/h 16.7 km/h 42 % 0.0 mm
17:21 29.9 °C 15.6 °C 1012.8 hPa ESE 14.8 km/h 14.8 km/h 42 % 0.0 mm
17:26 29.7 °C 15.8 °C 1012.8 hPa South 13.0 km/h 13.0 km/h 43 % 0.0 mm
17:31 29.7 °C 16.5 °C 1012.8 hPa SE 9.3 km/h 9.3 km/h 45 % 0.0 mm
17:36 29.9 °C 16.7 °C 1011.7 hPa NE 14.8 km/h 14.8 km/h 45 % 0.0 mm
17:41 29.5 °C 16.3 °C 1011.7 hPa ESE 13.0 km/h 13.0 km/h 45 % 0.0 mm
17:46 29.5 °C 16.3 °C 1011.7 hPa East 13.0 km/h 13.0 km/h 45 % 0.0 mm
17:51 29.2 °C 16.1 °C 1011.7 hPa ESE 13.0 km/h 13.0 km/h 45 % 0.0 mm
17:57 29.1 °C 16.3 °C 1011.7 hPa East 14.8 km/h 14.8 km/h 46 % 0.0 mm
18:02 29.0 °C 16.6 °C 1011.7 hPa ENE 13.0 km/h 13.0 km/h 47 % 0.0 mm
18:07 29.0 °C 16.6 °C 1011.7 hPa NNE 14.8 km/h 14.8 km/h 47 % 0.0 mm
18:12 29.0 °C 16.6 °C 1011.7 hPa ENE 11.1 km/h 11.9 km/h 47 % 0.0 mm
18:17 29.0 °C 16.6 °C 1011.7 hPa East 16.9 km/h 16.9 km/h 47 % 0.0 mm
18:22 28.9 °C 16.8 °C 1010.7 hPa SSE 13.0 km/h 13.0 km/h 48 % 0.0 mm
18:28 28.8 °C 16.4 °C 1010.7 hPa ESE 13.7 km/h 13.7 km/h 47 % 0.0 mm
18:33 28.5 °C 16.1 °C 1010.7 hPa SSE 18.5 km/h 18.5 km/h 47 % 0.0 mm
18:38 28.3 °C 15.6 °C 1010.7 hPa ESE 24.1 km/h 24.1 km/h 46 % 0.0 mm
18:43 28.0 °C 15.6 °C 1010.7 hPa NE 14.5 km/h 14.5 km/h 47 % 0.0 mm
18:48 28.0 °C 15.9 °C 1010.7 hPa ESE 13.0 km/h 13.0 km/h 48 % 0.0 mm
18:53 27.9 °C 15.9 °C 1010.0 hPa ESE 13.0 km/h 13.0 km/h 48 % 0.0 mm
18:58 27.8 °C 16.1 °C 1010.0 hPa ENE 11.9 km/h 11.9 km/h 49 % 0.0 mm
19:03 27.6 °C 15.9 °C 1010.0 hPa East 18.5 km/h 18.5 km/h 49 % 0.0 mm
19:08 27.7 °C 16.0 °C 1010.0 hPa NNE 14.0 km/h 14.0 km/h 49 % 0.0 mm
19:13 27.6 °C 15.9 °C 1010.0 hPa ENE 11.1 km/h 11.1 km/h 49 % 0.0 mm
19:15 23.5 °C 19.2 °C 1010.7 hPa NE 8.0 km/h 8.0 km/h 77 % 0.0 mm
19:18 27.4 °C 15.7 °C 1010.0 hPa NNE 9.3 km/h 9.3 km/h 49 % 0.0 mm
19:23 27.3 °C 15.9 °C 1010.0 hPa ESE 14.8 km/h 14.8 km/h 50 % 0.0 mm
19:25 23.5 °C 19.2 °C 1010.0 hPa NE 4.8 km/h 8.0 km/h 77 % 0.0 mm
19:28 27.3 °C 15.7 °C 1010.0 hPa NNE 13.0 km/h 13.0 km/h 49 % 0.0 mm
19:33 27.4 °C 15.7 °C 1010.0 hPa ESE 13.0 km/h 13.0 km/h 49 % 0.0 mm
19:35 23.4 °C 19.1 °C 1010.0 hPa NE 4.8 km/h 4.8 km/h 77 % 0.0 mm
19:38 27.3 °C 15.9 °C 1010.0 hPa ENE 18.0 km/h 18.0 km/h 50 % 0.0 mm
19:43 27.2 °C 15.9 °C 1010.0 hPa ESE 16.1 km/h 16.1 km/h 50 % 0.0 mm
19:45 23.4 °C 19.1 °C 1010.0 hPa NE 8.0 km/h 8.0 km/h 77 % 0.0 mm
19:48 27.1 °C 16.1 °C 1010.0 hPa South 16.7 km/h 16.7 km/h 51 % 0.0 mm
19:54 27.2 °C 15.9 °C 1010.0 hPa ESE 13.0 km/h 13.0 km/h 50 % 0.0 mm
19:55 23.5 °C 19.2 °C 1010.0 hPa NNE 8.0 km/h 9.7 km/h 77 % 0.0 mm
19:59 27.1 °C 15.8 °C 1010.0 hPa ESE 9.3 km/h 9.3 km/h 50 % 0.0 mm
20:04 27.1 °C 15.8 °C 1010.0 hPa ESE 9.3 km/h 9.3 km/h 50 % 0.0 mm
20:05 23.4 °C 18.9 °C 1010.0 hPa NNE 4.8 km/h 9.7 km/h 76 % 0.0 mm
20:09 27.0 °C 16.0 °C 1010.0 hPa East 9.5 km/h 9.5 km/h 51 % 0.0 mm
20:10 27.0 °C 15.7 °C 1010.0 hPa ESE 9.3 km/h 9.7 km/h 50 % 0.0 mm
20:15 27.0 °C 16.0 °C 1010.0 hPa East 9.3 km/h 9.3 km/h 51 % 0.0 mm
20:21 26.8 °C 17.0 °C 1010.0 hPa ENE 7.4 km/h 7.6 km/h 55 % 0.0 mm
20:25 23.4 °C 18.9 °C 1010.0 hPa NE 8.0 km/h 8.0 km/h 76 % 0.0 mm
20:26 26.5 °C 17.3 °C 1010.0 hPa ENE 7.9 km/h 12.6 km/h 57 % 0.0 mm
20:31 26.2 °C 17.6 °C 1010.0 hPa ENE 10.0 km/h 10.0 km/h 59 % 0.0 mm
20:35 23.5 °C 19.0 °C 1010.0 hPa NE 4.8 km/h 8.0 km/h 76 % 0.0 mm
20:36 26.0 °C 18.2 °C 1010.0 hPa SSE 13.0 km/h 13.0 km/h 62 % 0.0 mm
20:41 25.9 °C 18.3 °C 1010.0 hPa ENE 16.7 km/h 16.7 km/h 63 % 0.0 mm
20:45 23.5 °C 19.0 °C 1009.0 hPa NE 4.8 km/h 6.4 km/h 76 % 0.0 mm
20:46 25.8 °C 18.4 °C 1010.0 hPa East 13.0 km/h 13.0 km/h 64 % 0.0 mm
20:51 25.6 °C 18.6 °C 1010.0 hPa ENE 16.7 km/h 16.7 km/h 65 % 0.0 mm
20:55 23.5 °C 19.0 °C 1010.0 hPa NE 3.2 km/h 4.8 km/h 76 % 0.0 mm
20:57 25.5 °C 18.4 °C 1010.0 hPa ENE 11.1 km/h 11.1 km/h 65 % 0.0 mm
21:02 25.4 °C 18.3 °C 1010.0 hPa East 9.3 km/h 9.3 km/h 65 % 0.0 mm
21:05 23.6 °C 19.1 °C 1010.0 hPa NE 1.6 km/h 4.8 km/h 76 % 0.0 mm
21:07 25.4 °C 18.6 °C 1010.0 hPa NNE 11.1 km/h 11.1 km/h 66 % 0.0 mm
21:12 25.3 °C 18.2 °C 1010.0 hPa East 7.4 km/h 7.4 km/h 65 % 0.0 mm
21:15 23.6 °C 19.1 °C 1010.0 hPa NE 3.2 km/h 4.8 km/h 76 % 0.0 mm
21:17 25.3 °C 18.5 °C 1010.0 hPa ESE 14.8 km/h 14.8 km/h 66 % 0.0 mm
21:22 25.1 °C 18.3 °C 1010.0 hPa ESE 12.6 km/h 12.6 km/h 66 % 0.0 mm
21:25 23.6 °C 19.1 °C 1010.0 hPa NNE 4.8 km/h 4.8 km/h 76 % 0.0 mm
21:27 25.0 °C 18.4 °C 1010.0 hPa ENE 13.0 km/h 13.0 km/h 67 % 0.0 mm
21:32 25.0 °C 18.4 °C 1010.0 hPa East 9.3 km/h 9.3 km/h 67 % 0.0 mm
21:35 23.7 °C 19.0 °C 1010.0 hPa NNE 4.8 km/h 8.0 km/h 75 % 0.0 mm
21:37 24.9 °C 18.6 °C 1010.0 hPa ENE 9.3 km/h 9.3 km/h 68 % 0.0 mm
21:42 24.8 °C 18.7 °C 1010.0 hPa SE 9.3 km/h 9.3 km/h 69 % 0.0 mm
21:45 23.7 °C 18.8 °C 1010.0 hPa NE 8.0 km/h 8.0 km/h 74 % 0.0 mm
21:47 24.8 °C 18.7 °C 1010.0 hPa ENE 11.1 km/h 11.1 km/h 69 % 0.0 mm
21:52 24.7 °C 18.8 °C 1010.0 hPa ENE 12.6 km/h 12.6 km/h 70 % 0.0 mm
21:55 23.7 °C 18.8 °C 1010.0 hPa NE 4.8 km/h 6.4 km/h 74 % 0.0 mm
21:57 24.6 °C 18.8 °C 1010.0 hPa East 7.4 km/h 7.4 km/h 70 % 0.0 mm
22:02 24.6 °C 18.8 °C 1010.0 hPa ENE 13.0 km/h 13.0 km/h 70 % 0.0 mm
22:05 23.7 °C 18.6 °C 1010.0 hPa NNE 4.8 km/h 6.4 km/h 73 % 0.0 mm
22:08 24.5 °C 18.7 °C 1010.0 hPa SE 7.4 km/h 7.4 km/h 70 % 0.0 mm
22:13 24.4 °C 18.8 °C 1010.0 hPa NE 9.3 km/h 9.3 km/h 71 % 0.0 mm
22:15 23.6 °C 18.5 °C 1010.0 hPa NNE 4.8 km/h 9.7 km/h 73 % 0.0 mm
22:18 24.4 °C 18.8 °C 1010.0 hPa East 7.4 km/h 7.4 km/h 71 % 0.0 mm
22:23 24.4 °C 18.8 °C 1010.0 hPa SSE 14.8 km/h 14.8 km/h 71 % 0.0 mm
22:25 23.6 °C 18.5 °C 1009.0 hPa NNE 4.8 km/h 8.0 km/h 73 % 0.0 mm
22:28 24.3 °C 18.7 °C 1010.0 hPa ESE 11.1 km/h 11.1 km/h 71 % 0.0 mm
22:33 24.3 °C 18.7 °C 1010.0 hPa ESE 14.8 km/h 14.8 km/h 71 % 0.0 mm
22:35 23.5 °C 18.4 °C 1009.0 hPa NNE 1.6 km/h 6.4 km/h 73 % 0.0 mm
22:38 24.3 °C 18.7 °C 1010.0 hPa SE 7.4 km/h 7.4 km/h 71 % 0.0 mm
22:43 24.2 °C 18.8 °C 1010.0 hPa East 11.1 km/h 11.1 km/h 72 % 0.0 mm
22:45 23.3 °C 18.2 °C 1010.0 hPa NNE 1.6 km/h 4.8 km/h 73 % 0.0 mm
22:48 24.2 °C 18.8 °C 1010.0 hPa ESE 9.3 km/h 9.3 km/h 72 % 0.0 mm
22:53 24.2 °C 18.8 °C 1010.7 hPa East 9.3 km/h 9.3 km/h 72 % 0.0 mm
22:55 23.2 °C 18.1 °C 1010.0 hPa NE 3.2 km/h 4.8 km/h 73 % 0.0 mm
22:58 24.1 °C 18.9 °C 1010.7 hPa NE 11.4 km/h 11.4 km/h 73 % 0.0 mm
23:03 24.1 °C 18.9 °C 1010.7 hPa NNE 9.3 km/h 9.3 km/h 73 % 0.0 mm
23:05 23.1 °C 18.0 °C 1010.0 hPa NE 1.6 km/h 4.8 km/h 73 % 0.0 mm
23:09 24.0 °C 18.8 °C 1010.7 hPa ENE 5.6 km/h 5.6 km/h 73 % 0.0 mm
23:14 24.0 °C 18.7 °C 1010.7 hPa NNE 6.9 km/h 6.9 km/h 72 % 0.0 mm
23:15 23.0 °C 17.9 °C 1010.0 hPa NE 4.8 km/h 6.4 km/h 73 % 0.0 mm
23:19 23.9 °C 19.0 °C 1010.7 hPa NE 7.4 km/h 7.4 km/h 74 % 0.0 mm
23:24 23.9 °C 19.0 °C 1010.0 hPa ENE 5.6 km/h 5.6 km/h 74 % 0.0 mm
23:25 22.8 °C 17.7 °C 1009.0 hPa NE 4.8 km/h 4.8 km/h 73 % 0.0 mm
23:29 23.8 °C 18.9 °C 1010.0 hPa ENE 11.1 km/h 11.1 km/h 74 % 0.0 mm
23:34 23.7 °C 19.0 °C 1010.0 hPa ENE 9.3 km/h 9.3 km/h 75 % 0.0 mm
23:35 22.8 °C 17.9 °C 1009.0 hPa NE 3.2 km/h 6.4 km/h 74 % 0.0 mm
23:40 23.7 °C 19.0 °C 1010.0 hPa NE 9.3 km/h 9.3 km/h 75 % 0.0 mm
23:45 23.7 °C 19.2 °C 1010.0 hPa NE 9.7 km/h 9.7 km/h 76 % 0.0 mm
23:50 23.6 °C 19.1 °C 1010.0 hPa ENE 6.1 km/h 6.4 km/h 76 % 0.0 mm
23:55 23.6 °C 19.1 °C 1010.0 hPa NE 9.3 km/h 9.3 km/h 76 % 0.0 mm
Meteo Sesrovires
Elogis d' Weather Underground - 3.75 mb

Guio original per  Jim McMurry - jmcmurry@mwt.net Adaptat per a la plantilla per  Wim van der Kuil - Leuven-Template.eu

Trobareu la nostra informacio del temps tambe a:

Weather Underground

AWEKAS